createdAt,value
2017-12-25T00:00:20.057Z,10.68
2017-12-25T00:01:25.816Z,10.67
2017-12-25T00:02:31.693Z,10.67
2017-12-25T00:03:38.221Z,10.67
2017-12-25T00:04:44.709Z,10.68
2017-12-25T00:05:51.221Z,10.68
2017-12-25T00:06:56.956Z,10.66
2017-12-25T00:08:02.690Z,10.69
2017-12-25T00:09:08.431Z,10.69
2017-12-25T00:10:14.157Z,10.70
2017-12-25T00:11:20.003Z,10.71
2017-12-25T00:12:26.131Z,10.71
2017-12-25T00:13:31.875Z,10.74
2017-12-25T00:14:37.614Z,10.71
2017-12-25T00:15:43.336Z,10.72
2017-12-25T00:16:49.866Z,10.72
2017-12-25T00:17:55.602Z,10.70
2017-12-25T00:19:01.356Z,10.69
2017-12-25T00:20:07.077Z,10.70
2017-12-25T00:21:12.800Z,10.71
2017-12-25T00:22:18.219Z,10.67
2017-12-25T00:23:23.963Z,10.70
2017-12-25T00:24:29.725Z,10.69
2017-12-25T00:25:35.468Z,10.69
2017-12-25T00:26:41.218Z,10.70
2017-12-25T00:27:46.962Z,10.72
2017-12-25T00:28:52.689Z,10.72
2017-12-25T00:29:58.428Z,10.72
2017-12-25T00:31:04.154Z,10.72
2017-12-25T00:32:09.884Z,10.71
2017-12-25T00:33:15.640Z,10.70
2017-12-25T00:34:21.382Z,10.70
2017-12-25T00:35:27.122Z,10.69
2017-12-25T00:36:32.852Z,10.67
2017-12-25T00:37:38.591Z,10.64
2017-12-25T00:38:44.337Z,10.65
2017-12-25T00:39:50.087Z,10.67
2017-12-25T00:40:55.820Z,10.67
2017-12-25T00:42:01.542Z,10.71
2017-12-25T00:43:08.047Z,10.78
2017-12-25T00:44:13.810Z,10.81
2017-12-25T00:45:19.651Z,10.84
2017-12-25T00:46:25.404Z,10.87
2017-12-25T00:47:31.149Z,10.91
2017-12-25T00:48:37.645Z,10.90
2017-12-25T00:49:43.422Z,10.86
2017-12-25T00:50:49.152Z,10.85
2017-12-25T00:51:54.876Z,10.84
2017-12-25T00:53:00.619Z,10.85
2017-12-25T00:54:06.362Z,10.83
2017-12-25T00:55:12.117Z,10.83
2017-12-25T00:56:17.882Z,10.79
2017-12-25T00:57:23.627Z,10.82
2017-12-25T00:58:29.371Z,10.81
2017-12-25T00:59:35.327Z,10.81
2017-12-25T01:00:41.082Z,10.83
2017-12-25T01:01:47.576Z,10.89
2017-12-25T01:02:53.320Z,10.88
2017-12-25T01:03:59.067Z,10.89
2017-12-25T01:05:04.487Z,10.88
2017-12-25T01:06:10.240Z,10.87
2017-12-25T01:07:15.968Z,10.85
2017-12-25T01:08:21.735Z,10.81
2017-12-25T01:09:27.482Z,10.80
2017-12-25T01:10:33.214Z,10.80
2017-12-25T01:11:38.968Z,10.79
2017-12-25T01:12:44.691Z,10.79
2017-12-25T01:13:50.420Z,10.82
2017-12-25T01:14:56.173Z,10.78
2017-12-25T01:16:01.927Z,10.77
2017-12-25T01:17:07.714Z,10.71
2017-12-25T01:18:14.212Z,10.68
2017-12-25T01:19:19.948Z,10.69
2017-12-25T01:20:25.674Z,10.70
2017-12-25T01:21:31.411Z,10.72
2017-12-25T01:22:37.162Z,10.72
2017-12-25T01:23:42.891Z,10.74
2017-12-25T01:24:48.644Z,10.76
2017-12-25T01:25:54.396Z,10.70
2017-12-25T01:27:00.139Z,10.74
2017-12-25T01:28:05.893Z,10.72
2017-12-25T01:29:11.639Z,10.74
2017-12-25T01:30:17.366Z,10.74
2017-12-25T01:31:23.080Z,10.74
2017-12-25T01:32:29.048Z,10.75
2017-12-25T01:33:34.793Z,10.74
2017-12-25T01:34:40.513Z,10.71
2017-12-25T01:35:46.269Z,10.67
2017-12-25T01:36:52.008Z,10.64
2017-12-25T01:37:57.750Z,10.65
2017-12-25T01:39:03.285Z,10.64
2017-12-25T01:40:09.004Z,10.65
2017-12-25T01:41:14.893Z,10.61
2017-12-25T01:42:20.617Z,10.62
2017-12-25T01:43:26.364Z,10.61
2017-12-25T01:44:32.120Z,10.63
2017-12-25T01:45:37.847Z,10.70
2017-12-25T01:46:42.670Z,10.67
2017-12-25T01:47:48.406Z,10.66
2017-12-25T01:48:54.124Z,10.64
2017-12-25T01:49:59.867Z,10.59
2017-12-25T01:51:04.747Z,10.57
2017-12-25T01:52:09.812Z,10.58
2017-12-25T01:53:14.690Z,10.56
2017-12-25T01:54:21.251Z,10.58
2017-12-25T01:55:27.620Z,10.58
2017-12-25T01:56:41.288Z,10.60
2017-12-25T01:58:00.638Z,10.57
2017-12-25T02:00:57.322Z,10.58
2017-12-25T02:02:09.800Z,10.55
2017-12-25T02:03:14.860Z,10.59
2017-12-25T02:04:35.411Z,10.61
2017-12-25T02:07:47.701Z,10.60
2017-12-25T02:08:53.426Z,10.63
2017-12-25T02:10:00.210Z,10.65
2017-12-25T02:11:05.982Z,10.62
2017-12-25T02:12:11.722Z,10.62
2017-12-25T02:13:17.441Z,10.61
2017-12-25T02:14:23.178Z,10.64
2017-12-25T02:15:28.919Z,10.64
2017-12-25T02:16:34.686Z,10.64
2017-12-25T02:17:40.403Z,10.59
2017-12-25T02:18:46.146Z,10.61
2017-12-25T02:19:51.878Z,10.65
2017-12-25T02:20:57.610Z,10.65
2017-12-25T02:22:03.361Z,10.66
2017-12-25T02:23:09.080Z,10.65
2017-12-25T02:24:15.564Z,10.62
2017-12-25T02:25:21.288Z,10.67
2017-12-25T02:26:27.074Z,10.64
2017-12-25T02:27:32.829Z,10.63
2017-12-25T02:28:38.564Z,10.63
2017-12-25T02:29:44.282Z,10.59
2017-12-25T02:30:50.023Z,10.57
2017-12-25T02:31:55.744Z,10.57
2017-12-25T02:33:01.501Z,10.60
2017-12-25T02:34:07.248Z,10.63
2017-12-25T02:35:12.993Z,10.66
2017-12-25T02:36:18.750Z,10.65
2017-12-25T02:37:24.473Z,10.69
2017-12-25T02:38:30.279Z,10.70
2017-12-25T02:39:36.016Z,10.70
2017-12-25T02:40:42.510Z,10.70
2017-12-25T02:41:48.229Z,10.68
2017-12-25T02:42:53.992Z,10.65
2017-12-25T02:43:59.742Z,10.65
2017-12-25T02:45:05.529Z,10.67
2017-12-25T02:46:12.009Z,10.69
2017-12-25T02:47:17.737Z,10.71
2017-12-25T02:48:24.221Z,10.69
2017-12-25T02:49:29.993Z,10.71
2017-12-25T02:50:35.748Z,10.70
2017-12-25T02:51:41.469Z,10.73
2017-12-25T02:52:47.211Z,10.69
2017-12-25T02:53:52.934Z,10.65
2017-12-25T02:54:58.681Z,10.64
2017-12-25T02:56:04.420Z,10.62
2017-12-25T02:57:10.187Z,10.65
2017-12-25T02:58:15.923Z,10.66
2017-12-25T02:59:21.660Z,10.62
2017-12-25T03:00:27.410Z,10.58
2017-12-25T03:01:33.142Z,10.62
2017-12-25T03:02:38.889Z,10.68
2017-12-25T03:03:44.627Z,10.70
2017-12-25T03:04:50.340Z,10.72
2017-12-25T03:05:56.116Z,10.69
2017-12-25T03:07:01.833Z,10.69
2017-12-25T03:08:07.593Z,10.64
2017-12-25T03:09:13.111Z,10.60
2017-12-25T03:10:18.634Z,10.64
2017-12-25T03:11:24.433Z,10.62
2017-12-25T03:12:30.329Z,10.62
2017-12-25T03:13:36.079Z,10.60
2017-12-25T03:14:41.818Z,10.58
2017-12-25T03:15:47.542Z,10.56
2017-12-25T03:16:53.313Z,10.60
2017-12-25T03:17:59.052Z,10.63
2017-12-25T03:19:04.779Z,10.64
2017-12-25T03:20:10.539Z,10.62
2017-12-25T03:21:16.265Z,10.60
2017-12-25T03:22:22.008Z,10.60
2017-12-25T03:23:27.751Z,10.62
2017-12-25T03:24:33.479Z,10.63
2017-12-25T03:25:39.213Z,10.59
2017-12-25T03:26:44.939Z,10.60
2017-12-25T03:27:50.711Z,10.60
2017-12-25T03:28:56.452Z,10.58
2017-12-25T03:30:02.179Z,10.58
2017-12-25T03:31:07.922Z,10.59
2017-12-25T03:32:13.683Z,10.58
2017-12-25T03:33:19.429Z,10.52
2017-12-25T03:34:25.203Z,10.49
2017-12-25T03:35:30.960Z,10.52
2017-12-25T03:36:37.244Z,10.51
2017-12-25T03:37:42.974Z,10.56
2017-12-25T03:38:48.720Z,10.56
2017-12-25T03:39:54.445Z,10.58
2017-12-25T03:41:00.198Z,10.57
2017-12-25T03:42:05.598Z,10.60
2017-12-25T03:43:12.093Z,10.61
2017-12-25T03:44:17.865Z,10.61
2017-12-25T03:45:23.602Z,10.58
2017-12-25T03:46:29.332Z,10.55
2017-12-25T03:47:35.071Z,10.59
2017-12-25T03:48:40.797Z,10.61
2017-12-25T03:49:46.573Z,10.61
2017-12-25T03:50:52.296Z,10.62
2017-12-25T03:51:58.045Z,10.57
2017-12-25T03:53:03.808Z,10.55
2017-12-25T03:54:09.547Z,10.54
2017-12-25T03:55:15.318Z,10.53
2017-12-25T03:56:21.804Z,10.55
2017-12-25T03:57:27.521Z,10.54
2017-12-25T03:58:34.030Z,10.55
2017-12-25T03:59:39.767Z,10.53
2017-12-25T04:00:45.536Z,10.56
2017-12-25T04:01:51.257Z,10.56
2017-12-25T04:02:57.006Z,10.57
2017-12-25T04:04:03.097Z,10.60
2017-12-25T04:05:09.605Z,10.60
2017-12-25T04:06:15.369Z,10.60
2017-12-25T04:07:21.101Z,10.59
2017-12-25T04:08:26.844Z,10.54
2017-12-25T04:09:32.595Z,10.56
2017-12-25T04:10:39.870Z,10.57
2017-12-25T04:11:45.635Z,10.54
2017-12-25T04:12:52.126Z,10.52
2017-12-25T04:13:57.876Z,10.50
2017-12-25T04:15:03.602Z,10.53
2017-12-25T04:16:09.346Z,10.54
2017-12-25T04:17:15.096Z,10.54
2017-12-25T04:18:20.843Z,10.56
2017-12-25T04:19:26.590Z,10.55
2017-12-25T04:20:32.322Z,10.54
2017-12-25T04:21:38.047Z,10.53
2017-12-25T04:22:43.830Z,10.52
2017-12-25T04:23:49.556Z,10.52
2017-12-25T04:24:55.313Z,10.56
2017-12-25T04:26:01.035Z,10.60
2017-12-25T04:27:06.759Z,10.58
2017-12-25T04:28:12.535Z,10.58
2017-12-25T04:29:18.258Z,10.57
2017-12-25T04:30:24.004Z,10.53
2017-12-25T04:31:29.737Z,10.54
2017-12-25T04:32:35.503Z,10.57
2017-12-25T04:33:41.254Z,10.56
2017-12-25T04:34:48.490Z,10.57
2017-12-25T04:35:54.232Z,10.55
2017-12-25T04:36:59.972Z,10.60
2017-12-25T04:38:05.692Z,10.55
2017-12-25T04:39:11.454Z,10.52
2017-12-25T04:40:17.216Z,10.55
2017-12-25T04:41:22.949Z,10.58
2017-12-25T04:42:28.703Z,10.56
2017-12-25T04:43:34.447Z,10.53
2017-12-25T04:44:40.221Z,10.50
2017-12-25T04:45:46.734Z,10.50
2017-12-25T04:46:52.480Z,10.46
2017-12-25T04:47:58.237Z,10.41
2017-12-25T04:49:03.997Z,10.40
2017-12-25T04:50:10.542Z,10.41
2017-12-25T04:51:16.266Z,10.40
2017-12-25T04:52:21.999Z,10.38
2017-12-25T04:53:27.713Z,10.36
2017-12-25T04:54:33.425Z,10.34
2017-12-25T04:55:39.938Z,10.39
2017-12-25T04:56:45.883Z,10.40
2017-12-25T04:57:51.610Z,10.39
2017-12-25T04:58:57.329Z,10.39
2017-12-25T05:00:03.067Z,10.34
2017-12-25T05:01:08.827Z,10.30
2017-12-25T05:02:14.573Z,10.32
2017-12-25T05:03:20.288Z,10.29
2017-12-25T05:04:26.038Z,10.29
2017-12-25T05:05:31.569Z,10.32
2017-12-25T05:06:37.317Z,10.36
2017-12-25T05:07:43.067Z,10.34
2017-12-25T05:08:48.821Z,10.29
2017-12-25T05:09:54.542Z,10.31
2017-12-25T05:11:00.291Z,10.32
2017-12-25T05:12:06.042Z,10.34
2017-12-25T05:13:11.788Z,10.33
2017-12-25T05:14:17.532Z,10.29
2017-12-25T05:15:23.274Z,10.26
2017-12-25T05:16:28.981Z,10.27
2017-12-25T05:17:34.729Z,10.28
2017-12-25T05:18:40.462Z,10.28
2017-12-25T05:19:46.197Z,10.27
2017-12-25T05:20:52.693Z,10.23
2017-12-25T05:21:58.433Z,10.21
2017-12-25T05:23:04.201Z,10.23
2017-12-25T05:24:09.744Z,10.26
2017-12-25T05:25:15.490Z,10.28
2017-12-25T05:26:21.226Z,10.28
2017-12-25T05:27:26.945Z,10.30
2017-12-25T05:28:32.711Z,10.26
2017-12-25T05:29:38.425Z,10.26
2017-12-25T05:30:44.137Z,10.31
2017-12-25T05:31:49.865Z,10.28
2017-12-25T05:32:55.620Z,10.30
2017-12-25T05:34:01.368Z,10.32
2017-12-25T05:35:07.094Z,10.31
2017-12-25T05:36:12.819Z,10.33
2017-12-25T05:37:19.311Z,10.32
2017-12-25T05:38:25.128Z,10.26
2017-12-25T05:39:30.899Z,10.24
2017-12-25T05:40:36.628Z,10.23
2017-12-25T05:41:42.351Z,10.20
2017-12-25T05:42:48.100Z,10.20
2017-12-25T05:43:53.834Z,10.18
2017-12-25T05:44:59.616Z,10.20
2017-12-25T05:46:05.364Z,10.23
2017-12-25T05:47:11.080Z,10.26
2017-12-25T05:48:16.819Z,10.27
2017-12-25T05:49:22.551Z,10.30
2017-12-25T05:50:28.303Z,10.31
2017-12-25T05:51:34.052Z,10.30
2017-12-25T05:52:39.793Z,10.24
2017-12-25T05:53:45.556Z,10.25
2017-12-25T05:54:51.273Z,10.24
2017-12-25T05:55:57.033Z,10.24
2017-12-25T05:57:02.787Z,10.22
2017-12-25T05:58:08.530Z,10.22
2017-12-25T05:59:14.242Z,10.23
2017-12-25T06:00:19.995Z,10.21
2017-12-25T06:01:25.758Z,10.22
2017-12-25T06:02:31.514Z,10.19
2017-12-25T06:03:38.028Z,10.21
2017-12-25T06:04:43.757Z,10.21
2017-12-25T06:05:49.510Z,10.20
2017-12-25T06:06:55.314Z,10.21
2017-12-25T06:08:01.815Z,10.23
2017-12-25T06:09:07.543Z,10.18
2017-12-25T06:10:13.274Z,10.20
2017-12-25T06:11:18.994Z,10.19
2017-12-25T06:12:25.535Z,10.19
2017-12-25T06:13:31.258Z,10.20
2017-12-25T06:14:36.995Z,10.21
2017-12-25T06:15:42.722Z,10.19
2017-12-25T06:16:48.440Z,10.18
2017-12-25T06:17:54.488Z,10.17
2017-12-25T06:19:00.226Z,10.20
2017-12-25T06:20:05.946Z,10.21
2017-12-25T06:21:11.699Z,10.19
2017-12-25T06:22:17.433Z,10.17
2017-12-25T06:23:23.173Z,10.19
2017-12-25T06:24:29.668Z,10.21
2017-12-25T06:25:35.403Z,10.19
2017-12-25T06:26:41.139Z,10.19
2017-12-25T06:27:46.853Z,10.21
2017-12-25T06:28:53.444Z,10.17
2017-12-25T06:29:59.165Z,10.19
2017-12-25T06:31:04.882Z,10.16
2017-12-25T06:32:10.608Z,10.11
2017-12-25T06:33:16.394Z,10.11
2017-12-25T06:34:22.152Z,10.08
2017-12-25T06:35:28.015Z,10.08
2017-12-25T06:36:33.768Z,10.07
2017-12-25T06:37:40.272Z,10.03
2017-12-25T06:38:46.010Z,10.02
2017-12-25T06:39:51.784Z,10.02
2017-12-25T06:40:57.514Z,10.00
2017-12-25T06:42:03.232Z,9.97
2017-12-25T06:43:09.725Z,9.95
2017-12-25T06:44:15.461Z,9.97
2017-12-25T06:45:21.209Z,9.98
2017-12-25T06:46:26.956Z,9.97
2017-12-25T06:47:32.679Z,9.97
2017-12-25T06:48:38.399Z,9.96
2017-12-25T06:49:44.126Z,9.99
2017-12-25T06:50:50.646Z,10.00
2017-12-25T06:51:56.433Z,10.02
2017-12-25T06:53:02.939Z,10.01
2017-12-25T06:54:08.696Z,10.02
2017-12-25T06:55:14.434Z,10.00
2017-12-25T06:56:20.185Z,10.01
2017-12-25T06:57:25.925Z,10.00
2017-12-25T06:58:31.676Z,10.00
2017-12-25T06:59:38.185Z,10.04
2017-12-25T07:00:43.906Z,10.04
2017-12-25T07:01:49.664Z,10.02
2017-12-25T07:02:55.397Z,10.03
2017-12-25T07:04:01.125Z,10.04
2017-12-25T07:05:07.629Z,10.06
2017-12-25T07:06:13.363Z,10.10
2017-12-25T07:07:19.123Z,10.09
2017-12-25T07:08:24.855Z,10.06
2017-12-25T07:09:30.584Z,10.08
2017-12-25T07:10:36.308Z,10.11
2017-12-25T07:11:42.027Z,10.12
2017-12-25T07:12:47.787Z,10.11
2017-12-25T07:13:53.658Z,10.09
2017-12-25T07:14:59.372Z,10.07
2017-12-25T07:16:05.102Z,10.09
2017-12-25T07:17:10.844Z,10.10
2017-12-25T07:18:16.609Z,10.08
2017-12-25T07:19:22.320Z,10.05
2017-12-25T07:20:28.121Z,10.03
2017-12-25T07:21:34.227Z,10.07
2017-12-25T07:22:39.969Z,10.04
2017-12-25T07:23:45.712Z,10.01
2017-12-25T07:24:51.453Z,10.01
2017-12-25T07:25:57.166Z,10.02
2017-12-25T07:27:03.662Z,10.01
2017-12-25T07:28:09.372Z,9.98
2017-12-25T07:29:15.895Z,10.02
2017-12-25T07:30:21.635Z,10.02
2017-12-25T07:31:27.369Z,9.99
2017-12-25T07:32:33.092Z,9.96
2017-12-25T07:33:38.830Z,9.98
2017-12-25T07:34:44.612Z,9.98
2017-12-25T07:35:50.344Z,9.96
2017-12-25T07:36:56.077Z,9.98
2017-12-25T07:38:01.791Z,10.00
2017-12-25T07:39:07.199Z,10.04
2017-12-25T07:40:12.968Z,10.08
2017-12-25T07:41:18.698Z,10.08
2017-12-25T07:42:24.417Z,10.11
2017-12-25T07:43:30.138Z,10.12
2017-12-25T07:44:35.853Z,10.17
2017-12-25T07:45:41.604Z,10.19
2017-12-25T07:46:48.091Z,10.20
2017-12-25T07:47:54.603Z,10.21
2017-12-25T07:49:00.326Z,10.18
2017-12-25T07:50:06.067Z,10.11
2017-12-25T07:51:11.823Z,10.10
2017-12-25T07:52:17.536Z,10.11
2017-12-25T07:53:23.253Z,10.15
2017-12-25T07:54:29.735Z,10.18
2017-12-25T07:55:35.456Z,10.15
2017-12-25T07:56:41.993Z,10.18
2017-12-25T07:57:47.708Z,10.17
2017-12-25T07:58:53.442Z,10.17
2017-12-25T07:59:59.168Z,10.18
2017-12-25T08:01:04.907Z,10.19
2017-12-25T08:02:10.707Z,10.19
2017-12-25T08:03:16.442Z,10.25
2017-12-25T08:04:23.670Z,10.22
2017-12-25T08:05:29.447Z,10.26
2017-12-25T08:06:35.928Z,10.26
2017-12-25T08:07:42.443Z,10.25
2017-12-25T08:08:48.186Z,10.22
2017-12-25T08:09:54.125Z,10.22
2017-12-25T08:10:59.871Z,10.21
2017-12-25T08:12:05.261Z,10.20
2017-12-25T08:13:11.799Z,10.20
2017-12-25T08:14:17.530Z,10.19
2017-12-25T08:15:23.276Z,10.18
2017-12-25T08:16:29.009Z,10.20
2017-12-25T08:17:34.732Z,10.19
2017-12-25T08:18:40.511Z,10.17
2017-12-25T08:19:47.015Z,10.17
2017-12-25T08:20:52.756Z,10.14
2017-12-25T08:21:58.486Z,10.10
2017-12-25T08:23:04.232Z,10.11
2017-12-25T08:24:09.975Z,10.12
2017-12-25T08:25:15.716Z,10.12
2017-12-25T08:26:21.437Z,10.14
2017-12-25T08:27:27.173Z,10.17
2017-12-25T08:28:32.968Z,10.20
2017-12-25T08:29:38.727Z,10.20
2017-12-25T08:30:44.531Z,10.18
2017-12-25T08:31:50.683Z,10.17
2017-12-25T08:32:56.420Z,10.19
2017-12-25T08:34:02.139Z,10.17
2017-12-25T08:35:07.893Z,10.18
2017-12-25T08:36:13.662Z,10.13
2017-12-25T08:37:19.418Z,10.09
2017-12-25T08:38:25.324Z,10.09
2017-12-25T08:39:31.065Z,10.10
2017-12-25T08:40:36.824Z,10.11
2017-12-25T08:41:42.533Z,10.17
2017-12-25T08:42:48.248Z,10.18
2017-12-25T08:43:54.792Z,10.17
2017-12-25T08:45:00.542Z,10.19
2017-12-25T08:46:06.297Z,10.20
2017-12-25T08:47:12.780Z,10.17
2017-12-25T08:48:18.512Z,10.13
2017-12-25T08:49:24.477Z,10.11
2017-12-25T08:50:30.215Z,10.17
2017-12-25T08:51:35.975Z,10.19
2017-12-25T08:52:41.720Z,10.21
2017-12-25T08:53:47.450Z,10.23
2017-12-25T08:54:53.167Z,10.26
2017-12-25T08:55:58.893Z,10.26
2017-12-25T08:57:05.398Z,10.27
2017-12-25T08:58:11.140Z,10.25
2017-12-25T08:59:16.957Z,10.23
2017-12-25T09:00:22.836Z,10.25
2017-12-25T09:01:28.575Z,10.25
2017-12-25T09:02:34.336Z,10.25
2017-12-25T09:03:41.558Z,10.28
2017-12-25T09:04:47.279Z,10.27
2017-12-25T09:05:53.804Z,10.29
2017-12-25T09:07:00.271Z,10.32
2017-12-25T09:08:06.019Z,10.32
2017-12-25T09:09:11.754Z,10.34
2017-12-25T09:10:17.317Z,10.34
2017-12-25T09:11:23.817Z,10.38
2017-12-25T09:12:29.550Z,10.37
2017-12-25T09:13:35.324Z,10.38
2017-12-25T09:14:41.099Z,10.36
2017-12-25T09:15:47.593Z,10.33
2017-12-25T09:16:53.347Z,10.33
2017-12-25T09:17:59.085Z,10.34
2017-12-25T09:19:04.843Z,10.36
2017-12-25T09:20:10.583Z,10.34
2017-12-25T09:21:16.328Z,10.36
2017-12-25T09:22:22.079Z,10.37
2017-12-25T09:23:27.819Z,10.39
2017-12-25T09:24:33.560Z,10.37
2017-12-25T09:25:39.278Z,10.34
2017-12-25T09:26:45.018Z,10.34
2017-12-25T09:27:50.736Z,10.33
2017-12-25T09:28:56.472Z,10.34
2017-12-25T09:30:02.260Z,10.29
2017-12-25T09:31:07.999Z,10.29
2017-12-25T09:32:13.724Z,10.29
2017-12-25T09:33:19.443Z,10.32
2017-12-25T09:34:25.165Z,10.33
2017-12-25T09:35:31.722Z,10.33
2017-12-25T09:36:37.470Z,10.36
2017-12-25T09:37:43.200Z,10.40
2017-12-25T09:38:49.720Z,10.38
2017-12-25T09:39:55.438Z,10.41
2017-12-25T09:41:01.368Z,10.41
2017-12-25T09:42:07.092Z,10.44
2017-12-25T09:43:12.808Z,10.42
2017-12-25T09:44:19.596Z,10.39
2017-12-25T09:45:26.089Z,10.37
2017-12-25T09:46:31.858Z,10.33
2017-12-25T09:47:37.862Z,10.33
2017-12-25T09:48:43.618Z,10.36
2017-12-25T09:49:49.355Z,10.40
2017-12-25T09:50:55.096Z,10.42
2017-12-25T09:52:00.848Z,10.45
2017-12-25T09:53:06.608Z,10.39
2017-12-25T09:54:12.361Z,10.37
2017-12-25T09:55:18.087Z,10.40
2017-12-25T09:56:23.846Z,10.41
2017-12-25T09:57:29.592Z,10.42
2017-12-25T09:58:36.099Z,10.52
2017-12-25T09:59:41.834Z,10.53
2017-12-25T10:00:47.558Z,10.56
2017-12-25T10:01:53.296Z,10.58
2017-12-25T10:02:59.820Z,10.58
2017-12-25T10:04:05.568Z,10.59
2017-12-25T10:05:11.339Z,10.61
2017-12-25T10:06:17.843Z,10.61
2017-12-25T10:07:23.588Z,10.64
2017-12-25T10:08:29.427Z,10.69
2017-12-25T10:09:35.144Z,10.69
2017-12-25T10:10:40.887Z,10.70
2017-12-25T10:11:46.619Z,10.73
2017-12-25T10:12:52.367Z,10.81
2017-12-25T10:13:58.152Z,10.75
2017-12-25T10:15:04.531Z,10.70
2017-12-25T10:16:10.285Z,10.73
2017-12-25T10:17:16.766Z,10.80
2017-12-25T10:18:22.516Z,10.77
2017-12-25T10:19:28.290Z,10.77
2017-12-25T10:20:34.018Z,10.83
2017-12-25T10:21:39.571Z,10.79
2017-12-25T10:22:45.315Z,10.79
2017-12-25T10:23:51.055Z,10.80
2017-12-25T10:24:56.829Z,10.84
2017-12-25T10:26:03.390Z,10.81
2017-12-25T10:27:09.935Z,10.79
2017-12-25T10:28:16.421Z,10.78
2017-12-25T10:29:22.169Z,10.76
2017-12-25T10:30:27.937Z,10.76
2017-12-25T10:31:33.679Z,10.77
2017-12-25T10:32:39.425Z,10.81
2017-12-25T10:33:45.153Z,10.80
2017-12-25T10:34:50.874Z,10.79
2017-12-25T10:35:56.629Z,10.83
2017-12-25T10:37:02.363Z,10.83
2017-12-25T10:38:08.096Z,10.85
2017-12-25T10:39:13.821Z,10.88
2017-12-25T10:40:19.622Z,10.87
2017-12-25T10:41:25.401Z,10.89
2017-12-25T10:42:31.173Z,10.88
2017-12-25T10:43:36.916Z,10.90
2017-12-25T10:44:42.636Z,10.90
2017-12-25T10:45:48.469Z,10.89
2017-12-25T10:46:55.018Z,10.90
2017-12-25T10:48:01.524Z,10.88
2017-12-25T10:49:07.241Z,10.84
2017-12-25T10:50:13.000Z,10.87
2017-12-25T10:51:18.724Z,10.85
2017-12-25T10:52:24.478Z,10.82
2017-12-25T10:53:30.229Z,10.83
2017-12-25T10:54:35.981Z,10.86
2017-12-25T10:55:41.705Z,10.83
2017-12-25T10:56:47.445Z,10.79
2017-12-25T10:57:53.193Z,10.75
2017-12-25T10:58:58.910Z,10.77
2017-12-25T11:00:04.099Z,10.76
2017-12-25T11:01:09.820Z,10.76
2017-12-25T11:02:15.572Z,10.79
2017-12-25T11:03:21.324Z,10.86
2017-12-25T11:04:27.064Z,10.87
2017-12-25T11:05:34.333Z,10.89
2017-12-25T11:06:40.877Z,10.87
2017-12-25T11:07:46.616Z,10.86
2017-12-25T11:08:52.410Z,10.88
2017-12-25T11:09:58.970Z,10.89
2017-12-25T11:11:05.479Z,10.89
2017-12-25T11:12:10.873Z,10.87
2017-12-25T11:13:16.603Z,10.87
2017-12-25T11:14:23.164Z,10.92
2017-12-25T11:15:29.665Z,10.88
2017-12-25T11:16:35.399Z,10.85
2017-12-25T11:17:41.152Z,10.81
2017-12-25T11:18:46.873Z,10.76
2017-12-25T11:19:52.630Z,10.74
2017-12-25T11:20:58.365Z,10.74
2017-12-25T11:22:04.128Z,10.75
2017-12-25T11:23:09.911Z,10.78
2017-12-25T11:24:16.530Z,10.82
2017-12-25T11:25:22.314Z,10.84
2017-12-25T11:26:28.816Z,10.83
2017-12-25T11:27:34.547Z,10.89
2017-12-25T11:28:40.305Z,10.81
2017-12-25T11:29:46.048Z,10.71
2017-12-25T11:30:51.808Z,10.68
2017-12-25T11:31:58.326Z,10.67
2017-12-25T11:33:04.049Z,10.67
2017-12-25T11:34:09.797Z,10.71
2017-12-25T11:35:15.533Z,10.74
2017-12-25T11:36:21.314Z,10.72
2017-12-25T11:37:27.073Z,10.71
2017-12-25T11:38:32.824Z,10.73
2017-12-25T11:39:40.163Z,10.72
2017-12-25T11:40:45.876Z,10.72
2017-12-25T11:41:51.650Z,10.73
2017-12-25T11:42:57.386Z,10.73
2017-12-25T11:44:03.143Z,10.77
2017-12-25T11:45:08.898Z,10.83
2017-12-25T11:46:14.627Z,10.85
2017-12-25T11:47:20.390Z,10.86
2017-12-25T11:48:26.911Z,10.87
2017-12-25T11:49:32.655Z,10.91
2017-12-25T11:50:38.410Z,10.88
2017-12-25T11:51:44.180Z,10.90
2017-12-25T11:52:50.729Z,10.92
2017-12-25T11:53:57.981Z,10.90
2017-12-25T11:55:03.729Z,10.90
2017-12-25T11:56:09.475Z,10.82
2017-12-25T11:57:15.197Z,10.81
2017-12-25T11:58:20.972Z,10.81
2017-12-25T11:59:27.492Z,10.75
2017-12-25T12:00:33.233Z,10.70
2017-12-25T12:01:38.969Z,10.67
2017-12-25T12:02:44.697Z,10.63
2017-12-25T12:03:50.516Z,10.60
2017-12-25T12:04:56.277Z,10.62
2017-12-25T12:06:02.090Z,10.59
2017-12-25T12:07:07.831Z,10.58
2017-12-25T12:08:14.347Z,10.55
2017-12-25T12:09:20.256Z,10.57
2017-12-25T12:10:26.751Z,10.62
2017-12-25T12:11:32.481Z,10.64
2017-12-25T12:12:38.227Z,10.66
2017-12-25T12:13:43.975Z,10.71
2017-12-25T12:14:49.759Z,10.71
2017-12-25T12:15:55.496Z,10.71
2017-12-25T12:17:02.002Z,10.70
2017-12-25T12:18:07.732Z,10.73
2017-12-25T12:19:13.582Z,10.63
2017-12-25T12:20:19.332Z,10.65
2017-12-25T12:21:25.066Z,10.69
2017-12-25T12:22:30.805Z,10.73
2017-12-25T12:23:36.563Z,10.72
2017-12-25T12:24:42.339Z,10.73
2017-12-25T12:25:48.105Z,10.70
2017-12-25T12:26:54.598Z,10.64
2017-12-25T12:28:00.095Z,10.64
2017-12-25T12:29:06.593Z,10.69
2017-12-25T12:30:12.343Z,10.70
2017-12-25T12:31:18.106Z,10.74
2017-12-25T12:32:23.847Z,10.69
2017-12-25T12:33:29.583Z,10.66
2017-12-25T12:34:35.323Z,10.71
2017-12-25T12:35:41.045Z,10.78
2017-12-25T12:36:46.807Z,10.84
2017-12-25T12:37:52.545Z,10.86
2017-12-25T12:38:58.272Z,10.85
2017-12-25T12:40:04.015Z,10.84
2017-12-25T12:41:09.752Z,10.77
2017-12-25T12:42:15.535Z,10.70
2017-12-25T12:43:21.264Z,10.64
2017-12-25T12:44:26.984Z,10.62
2017-12-25T12:45:32.721Z,10.66
2017-12-25T12:46:38.524Z,10.68
2017-12-25T12:47:44.511Z,10.73
2017-12-25T12:48:50.314Z,10.65
2017-12-25T12:49:56.046Z,10.61
2017-12-25T12:51:02.573Z,10.56
2017-12-25T12:52:08.509Z,10.55
2017-12-25T12:53:14.283Z,10.55
2017-12-25T12:54:20.862Z,10.57
2017-12-25T12:55:27.350Z,10.57
2017-12-25T12:56:33.122Z,10.63
2017-12-25T12:57:38.837Z,10.68
2017-12-25T12:58:44.593Z,10.69
2017-12-25T12:59:50.331Z,10.69
2017-12-25T13:00:56.051Z,10.70
2017-12-25T13:02:01.800Z,10.75
2017-12-25T13:03:07.662Z,10.73
2017-12-25T13:04:13.439Z,10.72
2017-12-25T13:05:19.940Z,10.73
2017-12-25T13:06:25.435Z,10.72
2017-12-25T13:07:31.926Z,10.70
2017-12-25T13:08:37.965Z,10.72
2017-12-25T13:09:43.791Z,10.76
2017-12-25T13:10:50.295Z,10.77
2017-12-25T13:11:56.028Z,10.77
2017-12-25T13:13:01.758Z,10.76
2017-12-25T13:14:07.498Z,10.75
2017-12-25T13:15:13.303Z,10.76
2017-12-25T13:16:19.044Z,10.75
2017-12-25T13:17:24.783Z,10.75
2017-12-25T13:18:31.284Z,10.79
2017-12-25T13:19:37.102Z,10.82
2017-12-25T13:20:43.640Z,10.83
2017-12-25T13:21:49.399Z,10.75
2017-12-25T13:22:55.911Z,10.72
2017-12-25T13:24:01.653Z,10.73
2017-12-25T13:25:07.373Z,10.72
2017-12-25T13:26:13.124Z,10.74
2017-12-25T13:27:18.852Z,10.76
2017-12-25T13:28:24.590Z,10.79
2017-12-25T13:29:30.342Z,10.78
2017-12-25T13:30:36.080Z,10.72
2017-12-25T13:31:41.898Z,10.69
2017-12-25T13:32:47.643Z,10.65
2017-12-25T13:33:53.397Z,10.64
2017-12-25T13:34:59.128Z,10.67
2017-12-25T13:36:04.520Z,10.70
2017-12-25T13:37:10.270Z,10.72
2017-12-25T13:38:15.990Z,10.73
2017-12-25T13:39:21.713Z,10.74
2017-12-25T13:40:27.446Z,10.71
2017-12-25T13:41:33.222Z,10.68
2017-12-25T13:42:38.968Z,10.72
2017-12-25T13:43:44.824Z,10.73
2017-12-25T13:44:51.175Z,10.74
2017-12-25T13:45:57.105Z,10.72
2017-12-25T13:47:02.910Z,10.73
2017-12-25T13:48:09.546Z,10.68
2017-12-25T13:49:15.405Z,10.66
2017-12-25T13:50:22.000Z,10.66
2017-12-25T13:51:27.783Z,10.63
2017-12-25T13:52:33.902Z,10.66
2017-12-25T13:53:42.668Z,10.65
2017-12-25T13:54:49.316Z,10.68
2017-12-25T13:55:55.044Z,10.84
2017-12-25T13:57:01.242Z,10.83
2017-12-25T13:58:07.181Z,10.78
2017-12-25T13:59:13.028Z,10.74
2017-12-25T14:00:19.148Z,10.69
2017-12-25T14:01:25.226Z,10.65
2017-12-25T14:02:31.076Z,10.63
2017-12-25T14:03:36.922Z,10.64
2017-12-25T14:04:43.058Z,10.71
2017-12-25T14:05:49.076Z,10.73
2017-12-25T14:06:55.944Z,10.69
2017-12-25T14:08:02.023Z,10.67
2017-12-25T14:09:08.906Z,10.68
2017-12-25T14:10:14.739Z,10.68
2017-12-25T14:11:20.579Z,10.69
2017-12-25T14:12:27.239Z,10.69
2017-12-25T14:13:33.807Z,10.69